createdAt,value
2023-01-07T00:02:13.841Z,101575.44
2023-01-07T00:04:41.663Z,101576.22
2023-01-07T00:07:11.782Z,101564.56
2023-01-07T00:09:41.307Z,101564.38
2023-01-07T00:12:09.175Z,101573.00
2023-01-07T00:14:37.047Z,101571.88
2023-01-07T00:17:05.214Z,101570.03
2023-01-07T00:19:33.094Z,101567.47
2023-01-07T00:22:01.066Z,101573.31
2023-01-07T00:24:28.992Z,101577.66
2023-01-07T00:26:58.495Z,101574.69
2023-01-07T00:29:26.435Z,101578.28
2023-01-07T00:31:54.722Z,101572.03
2023-01-07T00:34:23.719Z,101575.56
2023-01-07T00:36:51.705Z,101567.59
2023-01-07T00:39:21.548Z,101569.25
2023-01-07T00:42:04.089Z,101559.50
2023-01-07T00:44:33.857Z,101565.94
2023-01-07T00:47:02.043Z,101569.63
2023-01-07T00:49:30.270Z,101563.41
2023-01-07T00:51:58.150Z,101564.44
2023-01-07T00:54:25.993Z,101565.47
2023-01-07T00:56:53.903Z,101566.34
2023-01-07T00:59:21.892Z,101570.84
2023-01-07T01:01:51.293Z,101568.88
2023-01-07T01:04:19.329Z,101567.13
2023-01-07T01:06:47.404Z,101558.03
2023-01-07T01:09:15.236Z,101548.19
2023-01-07T01:11:43.147Z,101549.78
2023-01-07T01:14:12.285Z,101551.53
2023-01-07T01:16:40.555Z,101550.66
2023-01-07T01:19:10.032Z,101548.25
2023-01-07T01:21:38.741Z,101549.75
2023-01-07T01:24:07.022Z,101552.34
2023-01-07T01:26:35.022Z,101547.91
2023-01-07T01:29:02.913Z,101549.44
2023-01-07T01:31:35.447Z,101531.75
2023-01-07T01:34:03.667Z,101532.56
2023-01-07T01:36:32.949Z,101530.06
2023-01-07T01:39:00.808Z,101530.06
2023-01-07T01:41:28.704Z,101525.72
2023-01-07T01:43:56.615Z,101527.56
2023-01-07T01:46:34.783Z,101524.75
2023-01-07T01:49:07.094Z,101528.13
2023-01-07T01:51:43.276Z,101528.13
2023-01-07T01:54:15.262Z,101525.63
2023-01-07T01:56:48.836Z,101533.16
2023-01-07T01:59:20.244Z,101533.06
2023-01-07T02:01:48.570Z,101523.56
2023-01-07T02:04:21.079Z,101521.69
2023-01-07T02:06:55.350Z,101518.91
2023-01-07T02:09:23.367Z,101517.06
2023-01-07T02:12:01.939Z,101510.03
2023-01-07T02:14:50.334Z,101519.56
2023-01-07T02:17:29.886Z,101514.75
2023-01-07T02:20:31.748Z,101504.09
2023-01-07T02:23:35.123Z,101506.09
2023-01-07T02:26:56.704Z,101508.38
2023-01-07T02:29:58.792Z,101511.91
2023-01-07T02:32:37.353Z,101496.69
2023-01-07T02:35:16.839Z,101492.84
2023-01-07T02:37:55.693Z,101488.31
2023-01-07T02:40:27.934Z,101483.19
2023-01-07T02:43:07.206Z,101480.19
2023-01-07T02:45:41.325Z,101473.28
2023-01-07T02:48:15.087Z,101479.28
2023-01-07T02:50:43.073Z,101468.59
2023-01-07T02:53:15.097Z,101464.53
2023-01-07T02:55:55.759Z,101470.84
2023-01-07T02:58:50.302Z,101465.44
2023-01-07T03:01:42.762Z,101467.19
2023-01-07T03:04:27.217Z,101457.22
2023-01-07T03:07:07.942Z,101460.69
2023-01-07T03:09:45.337Z,101453.50
2023-01-07T03:12:20.120Z,101459.47
2023-01-07T03:14:51.841Z,101441.50
2023-01-07T03:17:25.793Z,101445.84
2023-01-07T03:19:58.803Z,101447.84
2023-01-07T03:22:30.352Z,101446.25
2023-01-07T03:25:00.701Z,101439.72
2023-01-07T03:27:31.742Z,101434.25
2023-01-07T03:30:02.214Z,101447.47
2023-01-07T03:32:33.631Z,101444.56
2023-01-07T03:35:03.449Z,101443.41
2023-01-07T03:37:33.693Z,101437.75
2023-01-07T03:40:06.483Z,101442.88
2023-01-07T03:42:42.685Z,101438.22
2023-01-07T03:45:13.133Z,101443.38
2023-01-07T03:47:44.547Z,101437.94
2023-01-07T03:50:13.901Z,101441.16
2023-01-07T03:52:41.789Z,101436.50
2023-01-07T03:55:10.827Z,101417.84
2023-01-07T03:57:39.092Z,101423.19
2023-01-07T04:00:09.258Z,101423.91
2023-01-07T04:02:37.796Z,101420.25
2023-01-07T04:05:06.388Z,101426.22
2023-01-07T04:07:35.787Z,101417.06
2023-01-07T04:10:03.835Z,101408.09
2023-01-07T04:12:31.668Z,101403.50
2023-01-07T04:14:59.841Z,101397.59
2023-01-07T04:17:27.945Z,101398.22
2023-01-07T04:19:55.808Z,101396.31
2023-01-07T04:22:23.741Z,101398.97
2023-01-07T04:24:53.238Z,101387.31
2023-01-07T04:27:21.104Z,101396.31
2023-01-07T04:29:49.000Z,101392.50
2023-01-07T04:32:16.903Z,101390.03
2023-01-07T04:34:44.891Z,101383.72
2023-01-07T04:37:12.779Z,101387.00
2023-01-07T04:39:40.961Z,101382.38
2023-01-07T04:42:10.163Z,101383.13
2023-01-07T04:44:38.022Z,101374.03
2023-01-07T04:47:05.970Z,101367.50
2023-01-07T04:49:33.791Z,101363.66
2023-01-07T04:52:01.639Z,101360.91
2023-01-07T04:54:29.577Z,101357.00
2023-01-07T04:56:57.813Z,101361.31
2023-01-07T04:59:27.065Z,101367.28
2023-01-07T05:01:55.077Z,101365.31
2023-01-07T05:04:23.109Z,101370.03
2023-01-07T05:06:50.993Z,101370.47
2023-01-07T05:09:18.850Z,101369.31
2023-01-07T05:11:46.946Z,101364.75
2023-01-07T05:14:14.885Z,101372.53
2023-01-07T05:16:44.155Z,101364.28
2023-01-07T05:19:12.476Z,101372.53
2023-01-07T05:21:40.321Z,101364.25
2023-01-07T05:24:08.893Z,101360.63
2023-01-07T05:26:36.796Z,101367.59
2023-01-07T05:29:04.621Z,101359.44
2023-01-07T05:31:32.535Z,101364.53
2023-01-07T05:34:01.814Z,101357.16
2023-01-07T05:36:29.777Z,101357.16
2023-01-07T05:38:57.723Z,101361.31
2023-01-07T05:41:25.661Z,101356.91
2023-01-07T05:43:53.543Z,101358.47
2023-01-07T05:46:21.579Z,101357.47
2023-01-07T05:48:49.453Z,101362.38
2023-01-07T05:51:18.688Z,101354.38
2023-01-07T05:53:46.675Z,101349.91
2023-01-07T05:56:14.493Z,101351.63
2023-01-07T05:58:42.334Z,101360.34
2023-01-07T06:01:10.290Z,101349.44
2023-01-07T06:03:38.381Z,101352.72
2023-01-07T06:06:08.055Z,101360.72
2023-01-07T06:08:38.347Z,101359.34
2023-01-07T06:11:07.497Z,101354.00
2023-01-07T06:13:36.188Z,101351.94
2023-01-07T06:16:06.012Z,101351.03
2023-01-07T06:18:34.419Z,101367.53
2023-01-07T06:21:02.316Z,101364.63
2023-01-07T06:23:31.436Z,101367.03
2023-01-07T06:26:00.845Z,101358.19
2023-01-07T06:28:28.691Z,101363.28
2023-01-07T06:30:56.778Z,101354.19
2023-01-07T06:33:24.637Z,101355.91
2023-01-07T06:35:52.526Z,101358.22
2023-01-07T06:38:20.384Z,101353.53
2023-01-07T06:40:48.391Z,101350.66
2023-01-07T06:43:17.660Z,101351.44
2023-01-07T06:45:45.817Z,101354.13
2023-01-07T06:48:13.763Z,101351.00
2023-01-07T06:50:41.610Z,101341.00
2023-01-07T06:53:09.601Z,101349.47
2023-01-07T06:55:37.707Z,101356.34
2023-01-07T06:58:05.600Z,101355.06
2023-01-07T07:00:34.890Z,101356.72
2023-01-07T07:03:02.774Z,101366.00
2023-01-07T07:05:30.776Z,101355.22
2023-01-07T07:08:00.383Z,101365.03
2023-01-07T07:10:28.288Z,101361.34
2023-01-07T07:12:56.323Z,101355.41
2023-01-07T07:15:24.187Z,101353.94
2023-01-07T07:17:53.788Z,101352.88
2023-01-07T07:20:21.655Z,101352.63
2023-01-07T07:22:50.309Z,101351.03
2023-01-07T07:25:18.357Z,101346.00
2023-01-07T07:27:47.304Z,101343.00
2023-01-07T07:30:16.228Z,101353.06
2023-01-07T07:32:44.414Z,101351.53
2023-01-07T07:35:14.332Z,101353.16
2023-01-07T07:37:42.364Z,101355.41
2023-01-07T07:40:11.553Z,101354.53
2023-01-07T07:43:12.023Z,101356.78
2023-01-07T07:45:28.133Z,101351.78
2023-01-07T07:47:56.036Z,101347.09
2023-01-07T07:50:25.355Z,101350.72
2023-01-07T07:52:53.242Z,101342.34
2023-01-07T07:55:26.164Z,101349.50
2023-01-07T07:57:54.870Z,101351.44
2023-01-07T08:00:22.907Z,101347.59
2023-01-07T08:02:50.815Z,101351.66
2023-01-07T08:05:19.048Z,101334.84
2023-01-07T08:07:48.264Z,101338.78
2023-01-07T08:10:16.096Z,101338.00
2023-01-07T08:12:43.964Z,101343.09
2023-01-07T08:15:12.243Z,101342.91
2023-01-07T08:17:40.341Z,101342.22
2023-01-07T08:20:09.617Z,101340.72
2023-01-07T08:22:37.638Z,101342.28
2023-01-07T08:25:07.907Z,101329.88
2023-01-07T08:27:35.912Z,101335.22
2023-01-07T08:30:03.870Z,101333.31
2023-01-07T08:32:31.767Z,101327.19
2023-01-07T08:34:59.671Z,101335.31
2023-01-07T08:37:30.233Z,101328.31
2023-01-07T08:39:58.314Z,101323.06
2023-01-07T08:42:29.516Z,101310.72
2023-01-07T08:44:57.477Z,101313.59
2023-01-07T08:47:27.328Z,101326.69
2023-01-07T08:49:55.279Z,101314.38
2023-01-07T08:52:23.463Z,101307.91
2023-01-07T08:54:51.875Z,101312.03
2023-01-07T08:57:20.358Z,101312.84
2023-01-07T08:59:49.592Z,101315.53
2023-01-07T09:02:19.658Z,101316.03
2023-01-07T09:04:47.629Z,101313.47
2023-01-07T09:07:16.682Z,101308.56
2023-01-07T09:09:44.647Z,101306.28
2023-01-07T09:12:12.620Z,101304.72
2023-01-07T09:14:40.493Z,101310.09
2023-01-07T09:17:09.841Z,101309.91
2023-01-07T09:19:37.720Z,101303.13
2023-01-07T09:22:05.562Z,101299.78
2023-01-07T09:24:33.443Z,101305.47
2023-01-07T09:27:01.423Z,101310.47
2023-01-07T09:29:29.254Z,101316.03
2023-01-07T09:31:57.196Z,101320.31
2023-01-07T09:34:26.495Z,101310.91
2023-01-07T09:36:54.436Z,101312.22
2023-01-07T09:39:22.347Z,101313.69
2023-01-07T09:41:57.179Z,101308.69
2023-01-07T09:44:45.851Z,101297.84
2023-01-07T09:47:16.198Z,101307.09
2023-01-07T09:49:48.951Z,101294.09
2023-01-07T09:52:23.365Z,101291.75
2023-01-07T09:54:57.794Z,101294.44
2023-01-07T09:57:27.776Z,101291.75
2023-01-07T09:59:55.650Z,101286.00
2023-01-07T10:02:34.628Z,101288.69
2023-01-07T10:05:21.225Z,101281.44
2023-01-07T10:08:30.772Z,101289.75
2023-01-07T10:10:51.571Z,101284.50
2023-01-07T10:13:38.791Z,101277.22
2023-01-07T10:16:16.299Z,101277.00
2023-01-07T10:18:53.946Z,101279.38
2023-01-07T10:21:28.098Z,101274.78
2023-01-07T10:24:04.141Z,101273.78
2023-01-07T10:26:37.196Z,101269.50
2023-01-07T10:29:12.489Z,101274.09
2023-01-07T10:31:42.769Z,101272.06
2023-01-07T10:34:22.181Z,101267.28
2023-01-07T10:37:02.719Z,101273.31
2023-01-07T10:39:40.213Z,101271.91
2023-01-07T10:42:20.607Z,101260.94
2023-01-07T10:45:07.279Z,101262.59
2023-01-07T10:47:50.154Z,101254.28
2023-01-07T10:50:38.106Z,101252.53
2023-01-07T10:53:19.644Z,101252.75
2023-01-07T10:55:55.644Z,101250.63
2023-01-07T10:58:23.837Z,101244.91
2023-01-07T11:00:51.914Z,101246.44
2023-01-07T11:03:23.148Z,101236.31
2023-01-07T11:05:55.538Z,101237.97
2023-01-07T11:08:30.750Z,101236.31
2023-01-07T11:11:00.016Z,101240.41
2023-01-07T11:13:31.612Z,101235.66
2023-01-07T11:16:07.855Z,101235.66
2023-01-07T11:18:42.240Z,101238.63
2023-01-07T11:21:43.836Z,101226.66
2023-01-07T11:24:02.959Z,101220.38
2023-01-07T11:26:32.947Z,101214.13
2023-01-07T11:29:03.604Z,101210.78
2023-01-07T11:31:51.195Z,101209.88
2023-01-07T11:34:24.861Z,101211.19
2023-01-07T11:36:52.885Z,101205.50
2023-01-07T11:39:24.547Z,101213.69
2023-01-07T11:41:57.636Z,101205.69
2023-01-07T11:44:26.000Z,101206.38
2023-01-07T11:46:56.770Z,101192.28
2023-01-07T11:49:27.992Z,101191.13
2023-01-07T11:51:56.336Z,101203.00
2023-01-07T11:54:27.992Z,101190.03
2023-01-07T11:57:15.210Z,101195.00
2023-01-07T11:59:43.155Z,101190.81
2023-01-07T12:02:25.682Z,101187.72
2023-01-07T12:04:54.100Z,101178.69
2023-01-07T12:07:23.870Z,101177.38
2023-01-07T12:09:53.084Z,101176.50
2023-01-07T12:12:34.838Z,101186.22
2023-01-07T12:15:06.396Z,101171.63
2023-01-07T12:17:36.168Z,101165.41
2023-01-07T12:20:34.156Z,101156.81
2023-01-07T12:23:14.676Z,101159.75
2023-01-07T12:25:53.861Z,101144.13
2023-01-07T12:28:37.897Z,101158.38
2023-01-07T12:31:20.767Z,101150.66
2023-01-07T12:34:02.340Z,101146.84
2023-01-07T12:36:37.949Z,101145.31
2023-01-07T12:39:12.291Z,101142.56
2023-01-07T12:41:45.152Z,101134.00
2023-01-07T12:44:19.571Z,101133.13
2023-01-07T12:47:30.987Z,101129.03
2023-01-07T12:49:52.625Z,101126.63
2023-01-07T12:52:30.698Z,101127.75
2023-01-07T12:55:03.650Z,101128.16
2023-01-07T12:57:36.857Z,101121.34
2023-01-07T13:00:14.280Z,101120.69
2023-01-07T13:02:51.341Z,101109.97
2023-01-07T13:05:22.967Z,101105.00
2023-01-07T13:07:56.210Z,101096.31
2023-01-07T13:10:27.777Z,101103.75
2023-01-07T13:13:02.357Z,101106.16
2023-01-07T13:15:33.646Z,101097.25
2023-01-07T13:18:15.873Z,101101.84
2023-01-07T13:21:03.185Z,101106.16
2023-01-07T13:23:48.888Z,101096.03
2023-01-07T13:26:31.050Z,101093.28
2023-01-07T13:29:10.359Z,101089.75
2023-01-07T13:32:01.737Z,101087.06
2023-01-07T13:34:38.235Z,101080.50
2023-01-07T13:37:23.607Z,101085.53
2023-01-07T13:40:08.149Z,101075.25
2023-01-07T13:42:46.141Z,101075.59
2023-01-07T13:45:20.054Z,101073.88
2023-01-07T13:47:50.703Z,101075.13
2023-01-07T13:50:22.462Z,101067.09
2023-01-07T13:52:58.941Z,101067.00
2023-01-07T13:55:39.328Z,101058.78
2023-01-07T13:58:45.341Z,101049.56
2023-01-07T14:01:15.992Z,101049.19
2023-01-07T14:03:46.933Z,101053.38
2023-01-07T14:06:46.885Z,101050.09
2023-01-07T14:09:28.933Z,101050.09
2023-01-07T14:12:45.612Z,101044.22
2023-01-07T14:15:45.508Z,101031.78
2023-01-07T14:18:42.707Z,101025.00
2023-01-07T14:21:23.422Z,101030.19
2023-01-07T14:24:05.654Z,101032.88
2023-01-07T14:26:40.723Z,101030.84
2023-01-07T14:29:38.694Z,101028.78
2023-01-07T14:32:24.114Z,101023.53
2023-01-07T14:35:03.039Z,101019.16
2023-01-07T14:37:36.212Z,101017.59
2023-01-07T14:40:37.406Z,101022.16
2023-01-07T14:43:45.720Z,101010.16
2023-01-07T14:46:44.538Z,101004.44
2023-01-07T14:49:50.524Z,101007.28
2023-01-07T14:52:47.496Z,101007.28
2023-01-07T14:55:37.237Z,100996.91
2023-01-07T14:58:27.101Z,100990.69
2023-01-07T15:01:27.924Z,100991.00
2023-01-07T15:04:28.232Z,100990.22
2023-01-07T15:06:58.350Z,100983.63
2023-01-07T15:09:51.532Z,100977.16
2023-01-07T15:12:45.544Z,100983.16
2023-01-07T15:15:35.112Z,100981.34
2023-01-07T15:18:03.257Z,100967.31
2023-01-07T15:20:45.236Z,100976.22
2023-01-07T15:23:18.639Z,100961.97
2023-01-07T15:25:56.528Z,100958.44
2023-01-07T15:28:37.977Z,100951.41
2023-01-07T15:31:14.098Z,100949.75
2023-01-07T15:34:08.614Z,100944.41
2023-01-07T15:36:41.355Z,100940.63
2023-01-07T15:39:19.412Z,100938.81
2023-01-07T15:41:52.287Z,100930.91
2023-01-07T15:44:23.614Z,100938.69
2023-01-07T15:46:51.582Z,100931.94
2023-01-07T15:49:22.924Z,100928.72
2023-01-07T15:51:54.702Z,100925.00
2023-01-07T15:54:31.840Z,100924.25
2023-01-07T15:57:09.676Z,100920.16
2023-01-07T15:59:42.688Z,100915.19
2023-01-07T16:02:24.405Z,100915.75
2023-01-07T16:04:53.839Z,100906.13
2023-01-07T16:07:28.990Z,100903.25
2023-01-07T16:09:58.371Z,100897.25
2023-01-07T16:12:36.643Z,100893.16
2023-01-07T16:15:26.630Z,100895.81
2023-01-07T16:17:56.115Z,100888.03
2023-01-07T16:20:29.305Z,100880.47
2023-01-07T16:23:16.033Z,100877.19
2023-01-07T16:25:47.444Z,100877.78
2023-01-07T16:28:19.912Z,100879.50
2023-01-07T16:30:49.413Z,100868.34
2023-01-07T16:33:20.358Z,100874.75
2023-01-07T16:35:50.087Z,100878.16
2023-01-07T16:38:20.625Z,100876.09
2023-01-07T16:40:49.363Z,100866.88
2023-01-07T16:43:34.461Z,100866.72
2023-01-07T16:46:10.805Z,100867.31
2023-01-07T16:48:38.759Z,100870.25
2023-01-07T16:51:27.077Z,100857.06
2023-01-07T16:53:54.970Z,100849.66
2023-01-07T16:56:22.820Z,100850.13
2023-01-07T16:58:53.964Z,100843.38
2023-01-07T17:01:30.316Z,100842.41
2023-01-07T17:04:01.026Z,100840.78
2023-01-07T17:06:37.726Z,100834.50
2023-01-07T17:09:06.285Z,100831.81
2023-01-07T17:11:36.761Z,100832.59
2023-01-07T17:14:26.277Z,100839.41
2023-01-07T17:17:00.262Z,100841.41
2023-01-07T17:19:36.232Z,100838.91
2023-01-07T17:22:04.699Z,100838.19
2023-01-07T17:24:50.821Z,100821.47
2023-01-07T17:27:30.373Z,100828.06
2023-01-07T17:30:05.693Z,100824.47
2023-01-07T17:32:37.603Z,100825.28
2023-01-07T17:35:06.010Z,100813.78
2023-01-07T17:37:37.225Z,100811.38
2023-01-07T17:40:05.565Z,100810.03
2023-01-07T17:42:52.379Z,100798.34
2023-01-07T17:45:22.586Z,100797.28
2023-01-07T17:47:50.500Z,100799.50
2023-01-07T17:50:20.474Z,100794.06
2023-01-07T17:52:50.906Z,100802.47
2023-01-07T17:55:22.594Z,100798.22
2023-01-07T17:57:50.588Z,100805.13
2023-01-07T18:00:22.657Z,100802.44
2023-01-07T18:02:51.284Z,100807.31
2023-01-07T18:05:21.067Z,100795.28
2023-01-07T18:07:49.738Z,100785.66
2023-01-07T18:10:19.788Z,100784.41
2023-01-07T18:12:47.129Z,100772.22
2023-01-07T18:15:19.853Z,100776.13
2023-01-07T18:17:49.145Z,100761.09
2023-01-07T18:20:17.966Z,100750.31
2023-01-07T18:22:46.096Z,100754.72
2023-01-07T18:25:17.750Z,100743.34
2023-01-07T18:27:45.749Z,100760.44
2023-01-07T18:30:19.486Z,100757.22
2023-01-07T18:32:51.289Z,100751.38
2023-01-07T18:35:19.640Z,100751.75
2023-01-07T18:37:49.398Z,100761.50
2023-01-07T18:40:17.338Z,100764.06
2023-01-07T18:42:45.489Z,100759.69
2023-01-07T18:45:13.852Z,100765.09
2023-01-07T18:47:42.985Z,100761.75
2023-01-07T18:50:12.475Z,100764.25
2023-01-07T18:52:40.464Z,100759.31
2023-01-07T18:55:09.810Z,100750.16
2023-01-07T18:57:38.352Z,100749.19
2023-01-07T19:00:07.255Z,100741.41
2023-01-07T19:02:36.490Z,100747.00
2023-01-07T19:05:04.384Z,100747.00
2023-01-07T19:07:35.156Z,100739.88
2023-01-07T19:10:03.232Z,100751.09
2023-01-07T19:12:31.143Z,100739.56
2023-01-07T19:14:58.969Z,100747.41
2023-01-07T19:17:26.979Z,100740.34
2023-01-07T19:19:54.977Z,100732.34
2023-01-07T19:22:22.821Z,100731.31
2023-01-07T19:24:52.191Z,100737.00
2023-01-07T19:27:20.238Z,100729.22
2023-01-07T19:29:48.285Z,100722.44
2023-01-07T19:32:16.297Z,100722.34
2023-01-07T19:34:44.167Z,100726.91
2023-01-07T19:37:12.017Z,100719.13
2023-01-07T19:39:40.602Z,100719.13
2023-01-07T19:42:09.956Z,100716.06
2023-01-07T19:44:38.497Z,100716.72
2023-01-07T19:47:06.463Z,100717.59
2023-01-07T19:49:35.646Z,100708.34
2023-01-07T19:52:03.463Z,100702.91
2023-01-07T19:54:31.425Z,100697.69
2023-01-07T19:56:59.263Z,100688.44
2023-01-07T19:59:28.577Z,100681.09
2023-01-07T20:01:56.631Z,100686.84
2023-01-07T20:04:27.252Z,100674.56
2023-01-07T20:06:55.323Z,100673.97
2023-01-07T20:09:23.432Z,100670.25
2023-01-07T20:11:51.260Z,100667.69
2023-01-07T20:14:19.225Z,100662.56
2023-01-07T20:16:48.783Z,100660.00
2023-01-07T20:19:16.905Z,100660.16
2023-01-07T20:21:44.741Z,100647.91
2023-01-07T20:24:13.866Z,100653.03
2023-01-07T20:26:41.857Z,100639.50
2023-01-07T20:29:09.824Z,100652.00
2023-01-07T20:31:37.829Z,100636.78
2023-01-07T20:34:07.801Z,100639.34
2023-01-07T20:36:35.849Z,100627.81
2023-01-07T20:39:06.104Z,100632.38
2023-01-07T20:41:35.729Z,100632.28
2023-01-07T20:44:04.864Z,100617.47
2023-01-07T20:46:34.861Z,100610.19
2023-01-07T20:49:02.775Z,100609.06
2023-01-07T20:51:32.173Z,100600.97
2023-01-07T20:54:00.210Z,100599.47
2023-01-07T20:56:32.075Z,100595.75
2023-01-07T20:59:00.814Z,100594.91
2023-01-07T21:01:29.597Z,100583.84
2023-01-07T21:03:57.918Z,100587.38
2023-01-07T21:06:26.030Z,100582.13
2023-01-07T21:08:55.333Z,100588.34
2023-01-07T21:11:25.285Z,100586.13
2023-01-07T21:13:56.171Z,100581.06
2023-01-07T21:16:24.834Z,100572.03
2023-01-07T21:18:52.732Z,100570.50
2023-01-07T21:21:24.107Z,100563.38
2023-01-07T21:23:52.760Z,100561.59
2023-01-07T21:26:22.629Z,100550.91
2023-01-07T21:28:55.881Z,100556.91
2023-01-07T21:31:25.116Z,100544.72
2023-01-07T21:33:56.200Z,100543.75
2023-01-07T21:36:25.690Z,100544.44
2023-01-07T21:38:55.489Z,100548.53
2023-01-07T21:41:25.960Z,100552.78
2023-01-07T21:43:53.984Z,100557.06
2023-01-07T21:46:23.085Z,100554.41
2023-01-07T21:48:51.892Z,100554.69
2023-01-07T21:51:22.205Z,100553.88
2023-01-07T21:53:52.078Z,100556.59
2023-01-07T21:56:20.557Z,100555.09
2023-01-07T21:58:50.124Z,100556.34
2023-01-07T22:01:19.161Z,100553.50
2023-01-07T22:03:49.342Z,100549.94
2023-01-07T22:06:21.086Z,100557.00
2023-01-07T22:08:49.563Z,100551.84
2023-01-07T22:11:18.770Z,100565.19
2023-01-07T22:13:52.069Z,100565.66
2023-01-07T22:16:20.469Z,100567.00
2023-01-07T22:18:48.836Z,100574.16
2023-01-07T22:21:18.057Z,100561.09
2023-01-07T22:23:46.995Z,100555.00
2023-01-07T22:26:16.611Z,100541.63
2023-01-07T22:28:46.802Z,100546.47
2023-01-07T22:31:19.667Z,100524.09
2023-01-07T22:33:47.835Z,100522.97
2023-01-07T22:36:21.146Z,100537.88
2023-01-07T22:38:49.616Z,100532.38
2023-01-07T22:41:17.743Z,100522.25
2023-01-07T22:43:46.125Z,100524.44
2023-01-07T22:46:21.865Z,100511.13
2023-01-07T22:48:50.473Z,100516.28
2023-01-07T22:51:22.225Z,100517.09
2023-01-07T22:53:52.318Z,100522.06
2023-01-07T22:56:20.463Z,100519.09
2023-01-07T22:58:48.392Z,100516.13
2023-01-07T23:01:18.743Z,100505.19
2023-01-07T23:03:46.776Z,100519.56
2023-01-07T23:06:16.458Z,100515.44
2023-01-07T23:08:44.479Z,100510.19
2023-01-07T23:11:32.789Z,100493.53
2023-01-07T23:14:01.047Z,100484.72
2023-01-07T23:16:30.295Z,100487.81
2023-01-07T23:18:58.175Z,100492.38
2023-01-07T23:21:26.109Z,100479.16
2023-01-07T23:23:53.948Z,100484.94
2023-01-07T23:26:21.912Z,100472.56
2023-01-07T23:28:49.934Z,100471.94
2023-01-07T23:31:17.949Z,100477.75
2023-01-07T23:33:47.369Z,100472.88
2023-01-07T23:36:15.233Z,100470.31
2023-01-07T23:38:43.062Z,100478.63
2023-01-07T23:41:12.580Z,100475.84
2023-01-07T23:43:40.434Z,100480.97
2023-01-07T23:46:09.333Z,100471.06
2023-01-07T23:48:39.045Z,100459.69
2023-01-07T23:51:11.681Z,100456.25
2023-01-07T23:53:40.588Z,100462.06
2023-01-07T23:56:09.167Z,100453.69
2023-01-07T23:58:37.760Z,100448.47
